map of RHO home
RHO - Airport
Location
City:  Rhodos, Rhodos Island, Notío Aigaío (Southern Aegean), Greece
Near (Alt.):Rhodes
Name:Diagoras/Maritsa
ICAO:LGRP
IATA:RHO

Details
Type:Airport (Aerodrome, Airfield)
Use:Public/Civil, International (customs port of entry)
Latitude:36°24'20"N (36.405419)
Longitude:28°05'10"E (28.086192)
Datum:WGS 1984
Elevation:17 ft (5 m)
Variation:4.74°E (WMM2015 magnetic declination)
0.09° annual change
Runways:1
Longest:10846 × 148 ft (3306 × 45 m), paved

Time
Time Zone:UTC+2 (DST+3)
Local Time:

Weather
METAR:LGRP 222320Z 00000KT CAVOK 24/15 Q1012 NOSIG
TAF:LGRP 222300Z 2300/2324 VRB05KT 9999 FEW018
BECMG 2304/2306 25012KT

Related Locations
Nearby:
Farthest:RVV: 11532 mi / 18559 km
Raivavae, Tubuai Islands, Austral Islands, PF

Find:

   beyond  
but within

Other Information
Maps:
NOTAMs:
Links:
Sources:

  
flag of Greece   

Sectional Chart

Flight Planning
at skyvector.com

Satellite Image

Google Maps Satellite view

 

Copyright © 2004-2017 Karl L. Swartz. All rights reserved.
The Great Circle Mapper name and logo are trademarks of the Great Circle Mapper.
All other trademarks mentioned herein belong to their respective owners.
Please see credits for attibutions and further copyright information.

  Follow gcmap on Facebook Follow gcmap on Twitter Follow gcmap on Google+ GCmap on LinkedIn

hCard Microformat

Geo Microformat